Time;durP1;ratioP1;P1;durP2;ratioP2;P2;SDS_P1;SDS_P2;PMS_P1;PMS_P2;Temp;Humidity;BMP_temperature;BMP_pressure;BME280_temperature;BME280_humidity;BME280_pressure;Samples;Min_cycle;Max_cycle;Signal;HPM_P1;HPM_P2
2024/03/18 00:02:55;;;;;;;7.97;1.15;;;;;;;7.53;90.23;101653.72;6286899;28;20050;-75
2024/03/18 00:05:56;;;;;;;6.13;1.20;;;;;;;7.50;88.91;101647.75;6292812;28;20048;-75
2024/03/18 00:08:57;;;;;;;9.45;1.30;;;;;;;7.56;89.12;101650.19;6303906;28;20051;-76
2024/03/18 00:12:00;;;;;;;7.75;0.80;;;;;;;7.54;89.13;101642.41;6303266;28;20049;-75
2024/03/18 00:15:02;;;;;;;4.90;1.00;;;;;;;7.42;89.71;101642.72;6303615;28;20049;-75
2024/03/18 00:18:04;;;;;;;5.20;1.20;;;;;;;7.34;91.19;101639.44;6303407;28;20348;-75
2024/03/18 00:21:06;;;;;;;6.60;1.10;;;;;;;7.28;90.02;101645.69;6303135;28;20057;-76
2024/03/18 00:24:07;;;;;;;10.48;1.17;;;;;;;7.28;90.57;101639.59;6303456;28;20102;-75
2024/03/18 00:27:10;;;;;;;7.43;1.13;;;;;;;7.35;91.10;101647.22;6303084;28;20044;-75
2024/03/18 00:30:12;;;;;;;5.15;1.20;;;;;;;7.30;91.54;101638.63;6302913;28;20048;-75
2024/03/18 00:33:13;;;;;;;8.10;1.20;;;;;;;7.19;90.78;101634.59;6303350;28;20053;-75
2024/03/18 00:36:15;;;;;;;10.27;1.27;;;;;;;7.19;91.32;101638.06;6302696;28;20433;-75
2024/03/18 00:39:16;;;;;;;3.35;0.77;;;;;;;7.12;92.32;101631.25;6302501;28;20067;-75
2024/03/18 00:42:19;;;;;;;2.45;0.90;;;;;;;6.92;92.43;101628.28;6303101;28;20094;-75
2024/03/18 00:45:20;;;;;;;8.85;1.27;;;;;;;7.02;92.18;101630.63;6303507;28;20060;-75
2024/03/18 00:48:22;;;;;;;3.05;0.82;;;;;;;7.06;92.02;101624.44;6303963;28;20045;-75
2024/03/18 00:51:23;;;;;;;6.40;0.98;;;;;;;7.14;91.42;101624.25;6303454;28;20063;-75
2024/03/18 00:54:24;;;;;;;1.70;0.90;;;;;;;7.02;91.44;101614.94;6303059;28;20056;-75
2024/03/18 00:57:27;;;;;;;5.57;0.93;;;;;;;7.12;92.01;101615.56;6302643;28;20051;-75
2024/03/18 01:00:28;;;;;;;7.30;1.98;;;;;;;7.07;92.18;101609.59;6302363;28;20060;-74
2024/03/18 01:03:30;;;;;;;5.68;1.65;;;;;;;7.03;91.42;101605.34;6302553;28;20353;-75
2024/03/18 01:06:32;;;;;;;7.22;1.42;;;;;;;6.92;91.87;101599.53;6301883;28;20055;-75
2024/03/18 01:09:34;;;;;;;9.45;0.95;;;;;;;6.92;92.12;101595.19;6301897;28;20051;-75
2024/03/18 01:12:36;;;;;;;7.50;1.13;;;;;;;6.76;92.21;101594.66;6301575;28;20044;-75
2024/03/18 01:15:38;;;;;;;6.97;1.67;;;;;;;6.80;92.61;101587.63;6304376;28;20051;-75
2024/03/18 01:18:39;;;;;;;5.72;0.90;;;;;;;6.83;92.82;101584.94;6290502;28;20045;-75
2024/03/18 01:21:40;;;;;;;5.63;1.10;;;;;;;6.88;91.43;101584.84;6277065;28;20053;-75
2024/03/18 01:24:42;;;;;;;3.08;0.82;;;;;;;6.80;91.98;101585.88;6277067;28;20357;-75
2024/03/18 01:27:44;;;;;;;9.77;1.65;;;;;;;6.76;92.48;101570.31;6277221;28;20048;-75
2024/03/18 01:30:46;;;;;;;8.77;1.40;;;;;;;6.85;92.30;101575.31;6276665;28;20049;-75
2024/03/18 01:33:47;;;;;;;5.65;1.02;;;;;;;6.73;92.18;101567.78;6277173;28;20064;-74
2024/03/18 01:36:48;;;;;;;9.05;0.90;;;;;;;6.76;92.62;101554.63;6296502;28;20364;-74
2024/03/18 01:39:50;;;;;;;3.15;1.10;;;;;;;6.81;92.44;101556.25;6301086;28;20048;-74
2024/03/18 01:42:52;;;;;;;4.85;1.13;;;;;;;6.78;92.60;101558.94;6301718;28;20052;-74
2024/03/18 01:45:54;;;;;;;5.10;1.25;;;;;;;6.71;92.58;101557.34;6294405;28;20053;-74
2024/03/18 01:48:55;;;;;;;2.35;0.90;;;;;;;6.88;92.46;101550.88;6298466;28;20358;-75
2024/03/18 01:51:57;;;;;;;2.92;0.90;;;;;;;6.86;91.94;101551.78;6300858;28;20338;-75
2024/03/18 01:54:59;;;;;;;5.40;0.85;;;;;;;6.74;92.94;101551.22;6298603;28;20047;-75
2024/03/18 01:58:01;;;;;;;8.05;2.08;;;;;;;6.79;92.22;101555.41;6300983;28;20045;-75
2024/03/18 02:01:03;;;;;;;3.65;1.00;;;;;;;6.67;93.07;101544.41;6300801;28;20048;-75
2024/03/18 02:04:08;;;;;;;2.20;1.35;;;;;;;6.64;92.77;101549.72;6300875;28;20044;-75
2024/03/18 02:07:21;;;;;;;12.68;1.45;;;;;;;6.65;92.62;101546.22;6300692;28;20071;-75
2024/03/18 02:10:23;;;;;;;9.32;1.02;;;;;;;6.72;93.38;101548.66;6300354;28;20048;-75
2024/03/18 02:13:25;;;;;;;6.72;0.93;;;;;;;6.65;92.39;101541.84;6301017;28;20051;-75
2024/03/18 02:16:28;;;;;;;6.45;1.35;;;;;;;6.69;92.17;101542.63;6300336;28;20044;-75
2024/03/18 02:19:29;;;;;;;4.93;1.10;;;;;;;6.64;92.64;101528.84;6300209;28;20052;-75
2024/03/18 02:22:31;;;;;;;6.22;1.30;;;;;;;6.63;93.84;101521.88;6300844;28;20048;-76
2024/03/18 02:25:33;;;;;;;4.82;1.05;;;;;;;6.66;92.45;101525.28;6299260;28;20049;-75
2024/03/18 02:28:41;;;;;;;7.85;1.30;;;;;;;6.60;92.93;101520.22;6300543;28;20044;-75
2024/03/18 02:31:42;;;;;;;4.97;1.02;;;;;;;6.54;92.41;101522.94;6299035;28;20045;-75
2024/03/18 02:34:44;;;;;;;7.15;1.40;;;;;;;6.68;92.19;101517.41;6300220;28;20048;-76
2024/03/18 02:37:47;;;;;;;3.28;1.10;;;;;;;6.59;92.80;101514.13;6300337;28;20059;-76
2024/03/18 02:40:48;;;;;;;7.47;1.10;;;;;;;6.47;93.33;101509.19;6300118;28;20044;-76
2024/03/18 02:43:49;;;;;;;7.50;1.35;;;;;;;6.50;92.85;101496.06;6300280;28;20356;-75
2024/03/18 02:46:51;;;;;;;18.50;1.20;;;;;;;6.68;92.90;101501.75;6300184;28;20094;-75
2024/03/18 02:49:53;;;;;;;6.32;1.48;;;;;;;6.70;92.18;101494.72;6299626;28;20068;-75
2024/03/18 02:52:55;;;;;;;7.25;1.33;;;;;;;6.68;93.46;101500.00;6300360;28;20060;-75
2024/03/18 02:55:57;;;;;;;8.93;1.15;;;;;;;6.67;93.70;101495.63;6299929;28;20056;-75
2024/03/18 02:58:58;;;;;;;11.25;1.65;;;;;;;6.57;94.61;101489.78;6300054;28;20044;-75
2024/03/18 03:01:59;;;;;;;8.77;2.10;;;;;;;6.66;95.43;101488.72;6299756;28;20057;-75
2024/03/18 03:05:01;;;;;;;6.65;0.77;;;;;;;6.53;95.79;101489.91;6299768;28;20456;-74
2024/03/18 03:08:04;;;;;;;5.68;1.45;;;;;;;6.52;94.72;101489.06;6299927;28;20055;-75
2024/03/18 03:11:06;;;;;;;5.78;1.23;;;;;;;6.52;95.41;101488.19;6299611;28;20049;-75
2024/03/18 03:14:08;;;;;;;10.25;1.17;;;;;;;6.51;95.09;101482.13;6299024;28;20049;-76
2024/03/18 03:17:10;;;;;;;3.35;1.48;;;;;;;6.54;93.90;101481.16;6299640;28;20139;-75
2024/03/18 03:20:18;;;;;;;7.50;1.58;;;;;;;6.56;94.12;101482.00;6295603;28;20344;-75
2024/03/18 03:23:21;;;;;;;10.10;1.90;;;;;;;6.63;94.33;101475.72;6274996;28;20056;-75
2024/03/18 03:26:22;;;;;;;15.35;1.63;;;;;;;6.67;93.70;101474.75;6274879;28;20049;-75
2024/03/18 03:29:24;;;;;;;3.53;0.80;;;;;;;6.50;94.63;101472.59;6279009;28;20045;-75
2024/03/18 03:32:26;;;;;;;3.65;1.05;;;;;;;6.58;94.57;101470.59;6300110;28;20049;-75
2024/03/18 03:35:27;;;;;;;2.63;1.10;;;;;;;6.65;94.08;101468.72;6300674;28;20352;-76
2024/03/18 03:38:30;;;;;;;3.90;1.05;;;;;;;6.58;92.81;101472.38;6304697;28;20044;-75
2024/03/18 03:41:31;;;;;;;9.38;1.08;;;;;;;6.39;93.90;101464.13;6304249;28;20053;-75
2024/03/18 03:44:33;;;;;;;4.50;1.20;;;;;;;6.34;93.72;101466.84;6304200;28;20049;-75
2024/03/18 03:47:34;;;;;;;5.88;1.30;;;;;;;6.50;95.16;101472.59;6304225;28;20341;-75
2024/03/18 03:50:35;;;;;;;3.47;1.05;;;;;;;6.45;93.59;101469.22;6304274;28;20455;-75
2024/03/18 03:53:39;;;;;;;10.07;1.15;;;;;;;6.47;93.96;101464.81;6305904;28;20044;-75
2024/03/18 03:56:40;;;;;;;8.82;1.40;;;;;;;6.59;94.21;101459.28;6287751;28;20049;-75
2024/03/18 03:59:42;;;;;;;1.60;0.73;;;;;;;6.52;94.01;101464.69;6279303;28;20131;-75
2024/03/18 04:02:43;;;;;;;7.15;1.25;;;;;;;6.51;93.34;101457.78;6279095;28;20060;-75
2024/03/18 04:05:45;;;;;;;4.20;1.25;;;;;;;6.59;94.27;101463.66;6278672;28;20056;-75
2024/03/18 04:08:47;;;;;;;5.95;1.48;;;;;;;6.51;98.73;101465.59;6279000;28;20045;-75
2024/03/18 04:11:49;;;;;;;4.25;1.00;;;;;;;6.38;100.00;101465.03;6278762;28;20055;-75
2024/03/18 04:14:50;;;;;;;9.35;1.15;;;;;;;6.39;100.00;101458.06;6278640;28;20057;-75
2024/03/18 04:17:52;;;;;;;7.75;1.45;;;;;;;6.27;100.00;101449.66;6278591;28;20445;-76
2024/03/18 04:20:53;;;;;;;7.13;1.75;;;;;;;6.26;100.00;101436.63;6278420;28;20076;-75
2024/03/18 04:23:56;;;;;;;7.25;1.15;;;;;;;6.33;100.00;101443.41;6278611;28;20048;-77
2024/03/18 04:26:58;;;;;;;3.90;1.23;;;;;;;6.25;100.00;101446.19;6278313;28;20053;-75
2024/03/18 04:29:59;;;;;;;10.95;1.50;;;;;;;6.30;100.00;101446.94;6277886;28;20051;-74
2024/03/18 04:33:01;;;;;;;10.77;1.45;;;;;;;6.37;100.00;101445.06;6278756;28;20056;-74
2024/03/18 04:36:02;;;;;;;7.15;1.42;;;;;;;6.37;100.00;101442.44;6278061;28;20612;-74
2024/03/18 04:39:05;;;;;;;5.47;1.30;;;;;;;6.26;100.00;101440.09;6278196;28;20345;-76
2024/03/18 04:42:07;;;;;;;10.85;2.13;;;;;;;6.11;100.00;101440.47;6277857;28;20056;-74
2024/03/18 04:45:10;;;;;;;9.27;1.65;;;;;;;6.20;100.00;101436.78;6277780;28;20056;-76
2024/03/18 04:48:12;;;;;;;4.20;1.50;;;;;;;6.25;100.00;101432.28;6281840;28;20045;-74
2024/03/18 04:51:13;;;;;;;7.70;1.70;;;;;;;6.16;100.00;101430.75;6287646;28;20048;-76
2024/03/18 04:54:16;;;;;;;8.05;1.52;;;;;;;6.25;100.00;101427.94;6302951;28;20053;-74
2024/03/18 04:57:17;;;;;;;4.85;1.52;;;;;;;6.43;100.00;101428.38;6302424;28;20051;-78
2024/03/18 05:00:20;;;;;;;5.07;1.35;;;;;;;6.31;100.00;101427.81;6289258;28;20044;-76
2024/03/18 05:03:22;;;;;;;5.80;1.20;;;;;;;6.25;100.00;101424.47;6302362;28;20063;-76
2024/03/18 05:06:23;;;;;;;5.18;1.42;;;;;;;6.17;100.00;101424.66;6316618;22;20155;-76
2024/03/18 05:09:26;;;;;;;5.07;1.38;;;;;;;6.28;100.00;101414.81;6252291;28;20052;-75
2024/03/18 05:12:27;;;;;;;5.65;1.73;;;;;;;6.30;100.00;101431.28;6252743;28;20539;-76
2024/03/18 05:15:29;;;;;;;5.60;1.08;;;;;;;6.38;100.00;101423.28;6252364;28;20057;-76
2024/03/18 05:18:30;;;;;;;3.38;1.27;;;;;;;6.18;100.00;101423.78;6252332;28;20053;-77
2024/03/18 05:21:31;;;;;;;4.50;1.80;;;;;;;6.17;100.00;101418.56;6252047;28;20369;-77
2024/03/18 05:24:34;;;;;;;6.38;1.45;;;;;;;6.20;100.00;101423.72;6252329;28;20056;-77
2024/03/18 05:27:36;;;;;;;3.92;1.38;;;;;;;6.06;100.00;101416.22;6252245;28;20381;-77
2024/03/18 05:30:37;;;;;;;3.38;1.55;;;;;;;6.13;100.00;101415.16;6251774;28;20042;-77
2024/03/18 05:33:38;;;;;;;7.47;1.30;;;;;;;6.03;100.00;101417.16;6252029;28;20049;-77
2024/03/18 05:36:40;;;;;;;6.72;1.67;;;;;;;6.05;100.00;101423.22;6251907;28;20053;-77
2024/03/18 05:39:42;;;;;;;8.65;1.98;;;;;;;6.06;100.00;101424.06;6251638;28;20049;-77
2024/03/18 05:42:43;;;;;;;2.55;1.40;;;;;;;6.08;100.00;101422.25;6251890;28;20057;-77
2024/03/18 05:45:45;;;;;;;6.53;1.73;;;;;;;6.21;100.00;101426.28;6251692;28;20049;-77
2024/03/18 05:48:47;;;;;;;9.40;1.35;;;;;;;6.21;100.00;101428.03;6252000;28;20053;-77
2024/03/18 05:51:49;;;;;;;5.03;1.30;;;;;;;6.23;100.00;101421.91;6251375;28;20042;-77
2024/03/18 05:54:51;;;;;;;6.97;1.83;;;;;;;6.23;100.00;101414.06;6251758;28;20053;-77
2024/03/18 05:57:54;;;;;;;7.80;1.85;;;;;;;6.19;100.00;101417.66;6251413;28;20119;-77
2024/03/18 06:00:55;;;;;;;5.00;1.70;;;;;;;6.32;100.00;101413.84;6251124;28;20045;-77
2024/03/18 06:03:57;;;;;;;6.97;1.77;;;;;;;6.26;100.00;101423.56;6251502;28;20358;-77
2024/03/18 06:07:01;;;;;;;6.88;1.60;;;;;;;6.15;100.00;101418.63;6250850;28;20136;-77
2024/03/18 06:10:05;;;;;;;4.55;1.52;;;;;;;6.16;100.00;101416.88;6250893;28;20183;-78
2024/03/18 06:13:06;;;;;;;10.82;1.85;;;;;;;6.04;100.00;101420.59;6250908;28;20045;-77
2024/03/18 06:16:07;;;;;;;8.02;1.42;;;;;;;6.09;100.00;101422.25;6250936;28;20053;-77
2024/03/18 06:19:09;;;;;;;8.45;2.13;;;;;;;5.97;100.00;101424.28;6251202;28;20056;-77
2024/03/18 06:22:20;;;;;;;7.30;1.40;;;;;;;6.04;100.00;101418.88;6251340;28;20057;-77
2024/03/18 06:28:42;;;;;;;4.85;1.67;;;;;;;6.12;100.00;101423.06;6247789;28;20095;-77
2024/03/18 06:31:44;;;;;;;6.38;1.67;;;;;;;5.79;100.00;101420.31;6250434;28;20041;-77
2024/03/18 06:34:46;;;;;;;6.90;1.80;;;;;;;5.74;100.00;101423.03;6250807;28;20053;-77
2024/03/18 06:37:47;;;;;;;10.23;2.08;;;;;;;5.75;100.00;101424.72;6250772;28;20060;-77
2024/03/18 06:40:50;;;;;;;11.57;2.08;;;;;;;5.98;100.00;101428.59;6247131;28;20052;-77
2024/03/18 06:43:52;;;;;;;2.95;1.65;;;;;;;6.08;100.00;101427.47;6250705;28;20426;-77
2024/03/18 06:46:53;;;;;;;9.20;2.40;;;;;;;5.89;100.00;101418.34;6250548;28;20049;-77
2024/03/18 06:49:54;;;;;;;9.50;2.10;;;;;;;5.83;100.00;101414.13;6250073;28;20358;-77
2024/03/18 06:52:56;;;;;;;10.35;2.45;;;;;;;5.92;100.00;101419.16;6250441;28;20054;-76
2024/03/18 06:56:00;;;;;;;9.95;2.30;;;;;;;5.98;100.00;101428.59;6250370;28;20450;-77
2024/03/18 06:59:01;;;;;;;3.50;1.75;;;;;;;5.93;100.00;101414.81;6250386;28;20064;-77
2024/03/18 07:02:03;;;;;;;9.57;2.65;;;;;;;5.96;100.00;101422.56;6250151;28;20049;-77
2024/03/18 07:05:05;;;;;;;6.50;2.33;;;;;;;5.97;100.00;101419.91;6250119;28;20049;-77
2024/03/18 07:08:06;;;;;;;8.60;2.40;;;;;;;6.02;100.00;101420.66;6250299;28;20056;-77
2024/03/18 07:11:09;;;;;;;6.72;1.98;;;;;;;6.05;100.00;101419.75;6252581;28;20064;-77
2024/03/18 07:14:10;;;;;;;8.52;2.15;;;;;;;6.12;100.00;101426.50;6255475;28;20045;-78
2024/03/18 07:17:11;;;;;;;6.28;1.70;;;;;;;6.17;100.00;101422.03;6255137;28;20050;-77
2024/03/18 07:20:13;;;;;;;5.47;2.10;;;;;;;6.42;100.00;101419.69;6255018;28;20045;-77
2024/03/18 07:23:16;;;;;;;7.38;2.13;;;;;;;6.41;100.00;101415.38;6255425;28;20046;-77
2024/03/18 07:26:19;;;;;;;5.95;2.03;;;;;;;6.56;100.00;101414.97;6255151;28;20056;-77
2024/03/18 07:29:21;;;;;;;6.72;1.85;;;;;;;6.67;100.00;101414.69;6254204;28;20128;-77
2024/03/18 07:32:23;;;;;;;9.18;1.70;;;;;;;6.65;100.00;101416.47;6255074;28;20053;-77
2024/03/18 07:35:25;;;;;;;4.72;2.05;;;;;;;6.85;100.00;101423.78;6254989;28;20045;-77
2024/03/18 07:38:26;;;;;;;4.35;1.83;;;;;;;6.93;100.00;101421.81;6243057;28;20042;-78
2024/03/18 07:41:28;;;;;;;4.82;1.75;;;;;;;6.80;100.00;101421.28;6242420;28;20064;-78
2024/03/18 07:44:30;;;;;;;10.57;1.80;;;;;;;6.85;100.00;101418.56;6241359;28;20042;-77
2024/03/18 07:47:31;;;;;;;5.30;2.78;;;;;;;6.96;100.00;101413.06;6242341;28;20118;-78
2024/03/18 07:50:33;;;;;;;4.97;2.10;;;;;;;6.76;100.00;101414.44;6241006;28;20354;-77
2024/03/18 07:53:35;;;;;;;9.45;2.60;;;;;;;6.77;100.00;101415.31;6245035;28;20055;-78
2024/03/18 07:56:37;;;;;;;4.13;2.08;;;;;;;7.08;100.00;101415.31;6254336;28;20045;-78
2024/03/18 07:59:39;;;;;;;4.28;2.28;;;;;;;7.18;100.00;101411.56;6253892;28;20060;-78
2024/03/18 08:02:41;;;;;;;6.47;2.83;;;;;;;6.98;100.00;101426.91;6254557;28;20064;-78
2024/03/18 08:05:43;;;;;;;8.57;3.08;;;;;;;6.87;100.00;101424.63;6254000;28;20350;-78
2024/03/18 08:08:44;;;;;;;11.13;2.95;;;;;;;6.97;100.00;101430.44;6250958;28;20041;-80
2024/03/18 08:11:48;;;;;;;13.98;3.08;;;;;;;7.19;100.00;101423.72;6247805;28;20045;-78
2024/03/18 08:14:50;;;;;;;14.70;2.88;;;;;;;7.28;100.00;101431.28;6252212;28;20052;-77
2024/03/18 08:17:51;;;;;;;7.90;2.75;;;;;;;7.25;100.00;101434.00;6251101;28;20071;-78
2024/03/18 08:20:53;;;;;;;6.60;2.85;;;;;;;7.33;100.00;101437.25;6245364;28;20050;-78
2024/03/18 08:23:54;;;;;;;9.68;2.92;;;;;;;7.32;100.00;101432.94;6253017;28;20072;-76
2024/03/18 08:26:57;;;;;;;8.07;3.15;;;;;;;7.23;100.00;101435.81;6253100;28;20457;-77
2024/03/18 08:29:58;;;;;;;6.00;2.83;;;;;;;7.29;100.00;101427.78;6250139;28;20050;-78
2024/03/18 08:32:59;;;;;;;6.75;2.50;;;;;;;7.44;100.00;101430.84;6235919;28;20045;-79
2024/03/18 08:36:01;;;;;;;10.10;2.55;;;;;;;7.47;100.00;101436.00;6253180;28;20042;-79
2024/03/18 08:39:02;;;;;;;8.02;2.53;;;;;;;7.30;100.00;101426.00;6253457;28;20045;-80
2024/03/18 08:42:06;;;;;;;8.25;2.55;;;;;;;7.35;100.00;101427.59;6253215;28;20053;-79
2024/03/18 08:45:09;;;;;;;9.95;2.88;;;;;;;7.30;100.00;101433.84;6252558;28;20052;-78
2024/03/18 08:48:10;;;;;;;11.70;2.80;;;;;;;7.45;100.00;101424.69;6250107;28;20056;-78
2024/03/18 08:51:13;;;;;;;9.50;4.82;;;;;;;7.70;100.00;101425.69;6251111;28;20049;-77
2024/03/18 08:54:16;;;;;;;12.80;3.40;;;;;;;7.72;100.00;101430.88;6253123;28;20045;-77
2024/03/18 08:57:19;;;;;;;8.90;2.50;;;;;;;7.70;100.00;101433.53;6246238;28;20380;-76
2024/03/18 09:00:20;;;;;;;12.50;2.72;;;;;;;7.92;100.00;101435.50;6247440;28;20042;-77
2024/03/18 09:03:22;;;;;;;6.68;2.40;;;;;;;7.99;100.00;101437.84;6247704;28;20057;-77
2024/03/18 09:06:23;;;;;;;19.65;3.08;;;;;;;8.08;100.00;101434.09;6252562;28;20053;-79
2024/03/18 09:09:25;;;;;;;10.60;2.53;;;;;;;8.13;100.00;101432.22;6252413;28;20107;-77
2024/03/18 09:12:28;;;;;;;6.63;2.35;;;;;;;8.14;100.00;101432.16;6253064;28;20172;-76
2024/03/18 09:15:30;;;;;;;6.55;3.15;;;;;;;8.24;100.00;101432.72;6253316;28;20052;-77
2024/03/18 09:18:31;;;;;;;9.48;3.47;;;;;;;8.46;100.00;101437.28;6252939;28;20049;-78
2024/03/18 09:21:32;;;;;;;7.50;3.30;;;;;;;8.45;100.00;101435.53;6252322;28;20045;-77
2024/03/18 09:24:34;;;;;;;10.00;3.45;;;;;;;8.53;100.00;101437.00;6252191;28;20358;-76
2024/03/18 09:27:37;;;;;;;11.57;2.83;;;;;;;8.48;100.00;101438.94;6252365;28;20362;-77
2024/03/18 09:30:38;;;;;;;7.22;2.75;;;;;;;8.47;100.00;101437.22;6251842;28;20107;-75
2024/03/18 09:33:40;;;;;;;5.55;2.90;;;;;;;8.43;99.74;101445.22;6251954;28;20054;-78
2024/03/18 09:36:41;;;;;;;6.22;2.75;;;;;;;8.47;99.14;101444.22;6251937;28;20053;-77
2024/03/18 09:39:42;;;;;;;6.82;2.92;;;;;;;8.75;99.23;101449.38;6251221;28;20053;-77
2024/03/18 09:42:45;;;;;;;11.18;3.47;;;;;;;8.90;98.22;101446.22;6251573;28;20053;-80
2024/03/18 09:45:46;;;;;;;7.20;2.90;;;;;;;9.04;99.29;101453.63;6251601;28;20046;-77
2024/03/18 09:48:48;;;;;;;5.22;2.28;;;;;;;9.01;96.99;101454.56;6251961;28;20053;-77
2024/03/18 09:51:50;;;;;;;7.68;3.55;;;;;;;9.14;94.91;101450.59;6251317;28;20052;-78
2024/03/18 09:54:51;;;;;;;16.05;5.28;;;;;;;9.12;94.48;101444.53;6251746;28;20049;-76
2024/03/18 09:57:57;;;;;;;13.60;4.45;;;;;;;9.20;94.49;101443.44;6242664;28;20064;-76
2024/03/18 10:00:58;;;;;;;9.02;3.00;;;;;;;9.12;94.67;101441.06;6248504;28;20052;-76
2024/03/18 10:04:00;;;;;;;7.85;3.38;;;;;;;9.17;94.67;101447.00;6251503;28;20060;-75
2024/03/18 10:07:02;;;;;;;7.53;2.80;;;;;;;9.18;93.30;101447.88;6251244;28;20099;-77
2024/03/18 10:10:06;;;;;;;9.15;3.50;;;;;;;9.27;92.63;101440.53;6250675;28;20045;-78
2024/03/18 10:13:09;;;;;;;13.48;3.78;;;;;;;9.47;92.16;101445.03;6251554;28;20046;-76
2024/03/18 10:16:12;;;;;;;8.75;3.30;;;;;;;9.14;89.61;101431.41;6251138;28;20045;-78
2024/03/18 10:19:15;;;;;;;10.07;3.83;;;;;;;9.33;92.58;101436.81;6245356;28;20056;-77
2024/03/18 10:22:17;;;;;;;10.18;3.45;;;;;;;9.39;92.74;101431.34;6250874;28;20401;-78
2024/03/18 10:25:21;;;;;;;6.75;3.25;;;;;;;9.50;92.36;101425.72;6250811;28;20053;-77
2024/03/18 10:28:23;;;;;;;10.60;3.90;;;;;;;9.57;89.59;101422.75;6250839;28;20050;-77
2024/03/18 10:31:25;;;;;;;10.60;3.42;;;;;;;9.71;91.15;101426.63;6225946;28;20045;-78
2024/03/18 10:34:31;;;;;;;11.43;2.97;;;;;;;9.91;90.49;101424.94;6226654;28;20050;-77
2024/03/18 10:37:33;;;;;;;7.63;3.05;;;;;;;9.91;91.84;101422.31;6226235;28;20052;-78
2024/03/18 10:40:37;;;;;;;6.80;3.30;;;;;;;9.99;86.92;101427.28;6229238;28;20041;-78
2024/03/18 10:43:43;;;;;;;8.23;3.40;;;;;;;10.03;89.04;101425.34;6250600;28;20371;-78
2024/03/18 10:46:45;;;;;;;7.47;3.20;;;;;;;10.20;89.63;101419.44;6249798;28;20072;-78
2024/03/18 10:49:47;;;;;;;9.43;3.45;;;;;;;10.44;89.61;101425.47;6250358;28;20140;-79
2024/03/18 10:52:51;;;;;;;11.18;3.45;;;;;;;10.54;87.04;101418.94;6250455;28;20366;-78
2024/03/18 10:55:54;;;;;;;8.43;3.33;;;;;;;10.75;84.82;101428.50;6250392;28;20049;-77
2024/03/18 10:58:57;;;;;;;6.60;3.28;;;;;;;10.55;85.51;101432.00;6250390;28;20056;-77
2024/03/18 11:01:59;;;;;;;7.55;3.42;;;;;;;10.53;86.08;101425.94;6250011;28;20438;-77
2024/03/18 11:05:01;;;;;;;8.15;3.72;;;;;;;10.55;85.31;101416.22;6250166;28;20476;-77
2024/03/18 11:08:06;;;;;;;12.75;3.72;;;;;;;10.39;84.81;101412.53;6250292;28;20115;-75
2024/03/18 11:11:15;;;;;;;16.00;4.07;;;;;;;10.49;86.81;101413.00;6249691;28;20084;-73
2024/03/18 11:14:28;;;;;;;10.32;3.90;;;;;;;10.56;86.07;101414.44;6250174;28;20068;-74
2024/03/18 11:17:30;;;;;;;9.40;3.85;;;;;;;10.70;85.30;101425.22;6249837;28;20049;-74
2024/03/18 11:20:31;;;;;;;10.02;4.40;;;;;;;10.65;87.26;101411.44;6249773;28;20053;-74
2024/03/18 11:23:34;;;;;;;8.70;3.70;;;;;;;10.72;85.39;101410.25;6250126;28;20580;-74
2024/03/18 11:26:41;;;;;;;12.95;3.58;;;;;;;10.81;86.49;101417.75;6246016;28;20045;-74
2024/03/18 11:29:49;;;;;;;10.20;3.60;;;;;;;10.69;84.90;101426.16;6249407;28;20064;-74
2024/03/18 11:32:51;;;;;;;12.47;3.97;;;;;;;10.83;86.64;101433.44;6249891;28;20067;-75
2024/03/18 11:35:53;;;;;;;11.05;4.30;;;;;;;10.86;87.22;101430.69;6249683;28;20045;-75
2024/03/18 11:38:56;;;;;;;7.55;3.95;;;;;;;11.03;86.64;101424.66;6254152;28;20459;-74
2024/03/18 11:42:01;;;;;;;8.57;3.85;;;;;;;10.99;86.85;101415.19;6274255;28;20417;-74
2024/03/18 11:45:05;;;;;;;9.93;3.83;;;;;;;10.89;88.57;101425.28;6274518;28;20052;-74
2024/03/18 11:48:08;;;;;;;11.00;3.90;;;;;;;10.93;88.19;101424.22;6275032;28;20053;-74
2024/03/18 11:51:10;;;;;;;8.07;3.90;;;;;;;11.00;90.46;101420.41;6274280;28;20053;-73
2024/03/18 11:54:12;;;;;;;10.10;4.07;;;;;;;10.99;91.25;101418.72;6260936;28;20045;-73
2024/03/18 11:57:14;;;;;;;9.98;4.43;;;;;;;11.11;93.19;101419.94;6243391;28;20049;-75
2024/03/18 12:00:17;;;;;;;11.55;3.88;;;;;;;11.23;91.63;101413.28;6254089;28;20045;-74
2024/03/18 12:03:21;;;;;;;12.02;4.78;;;;;;;11.27;92.27;101410.44;6254297;28;20053;-75
2024/03/18 12:06:22;;;;;;;8.85;4.47;;;;;;;11.40;92.25;101406.31;6253961;28;20060;-75
2024/03/18 12:09:26;;;;;;;11.38;3.95;;;;;;;11.55;91.74;101411.78;6252400;28;20764;-74
2024/03/18 12:12:28;;;;;;;14.75;5.07;;;;;;;11.46;89.70;101405.16;6252653;28;20049;-74
2024/03/18 12:15:32;;;;;;;12.02;4.55;;;;;;;11.50;87.96;101401.47;6251512;28;20042;-75
2024/03/18 12:18:34;;;;;;;7.80;4.20;;;;;;;11.71;86.45;101401.38;6253803;28;20052;-76
2024/03/18 12:21:37;;;;;;;11.88;4.03;;;;;;;11.98;84.61;101392.19;6253169;28;20140;-75
2024/03/18 12:31:21;;;;;;;13.48;4.90;;;;;;;11.89;84.20;101384.72;6253363;28;20053;-74
2024/03/18 12:34:24;;;;;;;9.02;3.90;;;;;;;11.71;83.58;101378.53;6253436;28;20228;-76
2024/03/18 12:37:29;;;;;;;9.68;4.57;;;;;;;11.60;82.54;101386.94;6253847;28;20054;-75
2024/03/18 12:40:30;;;;;;;12.30;4.78;;;;;;;11.61;83.79;101388.66;6253076;28;20061;-74
2024/03/18 12:43:32;;;;;;;13.90;4.80;;;;;;;11.86;83.69;101387.53;6253560;28;20051;-73
2024/03/18 12:46:35;;;;;;;14.55;4.30;;;;;;;11.86;80.74;101387.53;6252916;28;20076;-74
2024/03/18 12:49:36;;;;;;;12.05;4.57;;;;;;;11.98;80.42;101388.69;6252697;28;20365;-75
2024/03/18 12:52:38;;;;;;;13.13;4.70;;;;;;;12.03;78.95;101389.31;6252212;28;20052;-75
2024/03/18 12:55:39;;;;;;;9.77;4.18;;;;;;;12.06;79.75;101384.75;6241207;28;20057;-76
2024/03/18 12:58:41;;;;;;;8.65;3.97;;;;;;;12.05;80.58;101382.22;6241002;28;20053;-76
2024/03/18 13:01:45;;;;;;;14.90;4.05;;;;;;;12.01;78.75;101378.88;6241427;28;20446;-76
2024/03/18 13:04:47;;;;;;;8.77;4.00;;;;;;;12.11;78.69;101382.75;6240053;28;20041;-76
2024/03/18 13:07:48;;;;;;;12.57;4.30;;;;;;;12.14;75.78;101379.97;6238961;28;20053;-74
2024/03/18 13:10:50;;;;;;;13.90;4.30;;;;;;;12.08;77.83;101380.28;6241934;28;20049;-75
2024/03/18 13:13:51;;;;;;;14.00;4.90;;;;;;;12.10;78.79;101383.69;6233144;28;20268;-75
2024/03/18 13:16:56;;;;;;;11.65;4.30;;;;;;;12.10;78.72;101381.03;6232449;28;20352;-75
2024/03/18 13:19:59;;;;;;;13.93;4.68;;;;;;;11.89;76.21;101384.72;6251914;28;20045;-76
2024/03/18 13:23:00;;;;;;;8.77;4.72;;;;;;;11.87;77.70;101381.31;6249437;28;20058;-75
2024/03/18 13:26:03;;;;;;;12.10;4.43;;;;;;;11.83;78.40;101380.63;6245742;28;20050;-73
2024/03/18 13:29:05;;;;;;;10.57;4.90;;;;;;;11.92;79.13;101376.69;6237231;28;20046;-75
2024/03/18 13:32:10;;;;;;;14.00;5.00;;;;;;;11.91;78.26;101385.53;6243139;28;20409;-72
2024/03/18 13:35:12;;;;;;;12.88;5.80;;;;;;;12.05;78.30;101388.31;6235755;28;20053;-74
2024/03/18 13:38:14;;;;;;;8.70;3.88;;;;;;;11.94;78.13;101374.81;6227585;28;20457;-76
2024/03/18 13:41:16;;;;;;;9.57;4.55;;;;;;;11.82;78.08;101367.50;6237951;28;20058;-76
2024/03/18 13:44:18;;;;;;;10.02;4.32;;;;;;;11.85;79.62;101376.09;6252212;28;20049;-75
2024/03/18 13:47:20;;;;;;;8.07;4.18;;;;;;;11.99;79.79;101380.72;6251533;28;20068;-75
2024/03/18 13:50:24;;;;;;;12.32;4.50;;;;;;;12.10;80.03;101374.94;6251488;28;20057;-74
2024/03/18 13:53:26;;;;;;;9.52;4.28;;;;;;;12.08;80.26;101372.38;6251645;28;20046;-75
2024/03/18 13:56:28;;;;;;;9.68;4.88;;;;;;;11.99;79.29;101371.94;6251668;28;20057;-75
2024/03/18 13:59:34;;;;;;;13.80;4.35;;;;;;;11.93;79.79;101373.97;6251230;28;20072;-75
2024/03/18 14:02:37;;;;;;;12.00;4.85;;;;;;;11.90;81.27;101373.28;6251816;28;20045;-75
2024/03/18 14:05:39;;;;;;;13.95;5.30;;;;;;;11.90;79.05;101383.81;6251312;28;20187;-73
2024/03/18 14:08:40;;;;;;;10.15;5.18;;;;;;;11.81;79.29;101385.09;6251370;28;20586;-76
2024/03/18 14:11:43;;;;;;;9.02;4.00;;;;;;;11.89;79.20;101390.00;6250941;28;20456;-75
2024/03/18 14:14:44;;;;;;;10.05;4.35;;;;;;;11.94;80.13;101390.63;6251044;28;20056;-75
2024/03/18 14:17:48;;;;;;;10.00;4.78;;;;;;;11.90;81.11;101394.34;6246727;28;20457;-74
2024/03/18 14:20:49;;;;;;;8.75;4.78;;;;;;;11.93;82.19;101395.03;6248739;28;20369;-74